createdAt,value
2019-02-26T00:01:21.182Z,3.80
2019-02-26T00:03:26.814Z,3.80
2019-02-26T00:05:33.080Z,3.80
2019-02-26T00:07:37.235Z,3.80
2019-02-26T00:09:41.015Z,3.70
2019-02-26T00:11:44.819Z,3.70
2019-02-26T00:13:50.249Z,3.70
2019-02-26T00:15:54.760Z,3.70
2019-02-26T00:17:58.550Z,3.70
2019-02-26T00:20:05.588Z,3.70
2019-02-26T00:22:09.587Z,3.70
2019-02-26T00:24:14.614Z,3.60
2019-02-26T00:26:20.654Z,3.50
2019-02-26T00:28:25.062Z,3.50
2019-02-26T00:30:28.850Z,3.50
2019-02-26T00:32:33.886Z,3.40
2019-02-26T00:34:39.104Z,3.40
2019-02-26T00:36:43.839Z,3.50
2019-02-26T00:38:48.412Z,3.60
2019-02-26T00:40:52.526Z,3.50
2019-02-26T00:42:58.996Z,3.40
2019-02-26T00:45:03.324Z,3.40
2019-02-26T00:47:08.987Z,3.30
2019-02-26T00:49:13.095Z,3.30
2019-02-26T00:51:18.724Z,3.30
2019-02-26T00:53:23.581Z,3.30
2019-02-26T00:55:29.848Z,3.30
2019-02-26T00:57:35.758Z,3.30
2019-02-26T00:59:41.297Z,3.40
2019-02-26T01:01:47.918Z,3.30
2019-02-26T01:03:51.870Z,3.30
2019-02-26T01:05:57.041Z,3.30
2019-02-26T01:08:01.691Z,3.30
2019-02-26T01:10:06.151Z,3.30
2019-02-26T01:12:13.185Z,3.20
2019-02-26T01:14:18.053Z,3.10
2019-02-26T01:16:21.477Z,3.10
2019-02-26T01:18:26.768Z,3.00
2019-02-26T01:20:32.011Z,2.90
2019-02-26T01:22:37.761Z,3.00
2019-02-26T01:24:41.560Z,3.00
2019-02-26T01:26:45.425Z,3.00
2019-02-26T01:28:51.072Z,3.00
2019-02-26T01:30:56.170Z,2.90
2019-02-26T01:33:03.382Z,2.90
2019-02-26T01:35:08.875Z,2.80
2019-02-26T01:37:12.312Z,2.70
2019-02-26T01:39:18.610Z,2.70
2019-02-26T01:41:23.259Z,2.60
2019-02-26T01:43:27.747Z,2.50
2019-02-26T01:45:32.392Z,2.60
2019-02-26T01:47:36.722Z,2.60
2019-02-26T01:49:41.945Z,2.70
2019-02-26T01:51:47.923Z,2.70
2019-02-26T01:53:53.583Z,2.80
2019-02-26T01:55:57.290Z,2.70
2019-02-26T01:58:01.112Z,2.60
2019-02-26T02:00:11.377Z,2.60
2019-02-26T02:02:17.632Z,2.60
2019-02-26T02:04:20.803Z,2.60
2019-02-26T02:06:25.040Z,2.60
2019-02-26T02:08:28.979Z,2.60
2019-02-26T02:10:32.834Z,2.60
2019-02-26T02:12:37.348Z,2.60
2019-02-26T02:14:42.394Z,2.50
2019-02-26T02:16:46.242Z,2.50
2019-02-26T02:18:51.379Z,2.40
2019-02-26T02:20:55.874Z,2.40
2019-02-26T02:23:01.033Z,2.40
2019-02-26T02:25:06.639Z,2.40
2019-02-26T02:27:12.619Z,2.40
2019-02-26T02:29:16.925Z,2.40
2019-02-26T02:31:21.964Z,2.40
2019-02-26T02:33:29.603Z,2.30
2019-02-26T02:35:52.299Z,2.30
2019-02-26T02:37:59.556Z,2.40
2019-02-26T02:40:02.572Z,2.40
2019-02-26T02:42:08.275Z,2.40
2019-02-26T02:44:14.739Z,2.40
2019-02-26T02:46:17.769Z,2.50
2019-02-26T02:48:21.562Z,2.60
2019-02-26T02:50:25.916Z,2.50
2019-02-26T02:52:32.239Z,2.50
2019-02-26T02:54:35.182Z,2.50
2019-02-26T02:56:41.665Z,2.40
2019-02-26T02:58:46.916Z,2.40
2019-02-26T03:00:52.204Z,2.30
2019-02-26T03:02:58.298Z,2.20
2019-02-26T03:05:01.747Z,2.30
2019-02-26T03:07:05.698Z,2.40
2019-02-26T03:09:17.018Z,2.40
2019-02-26T03:11:19.833Z,2.50
2019-02-26T03:13:25.488Z,2.50
2019-02-26T03:15:32.786Z,2.60
2019-02-26T03:17:35.310Z,2.60
2019-02-26T03:19:41.629Z,2.50
2019-02-26T03:21:47.125Z,2.40
2019-02-26T03:23:50.231Z,2.30
2019-02-26T03:25:55.191Z,2.10
2019-02-26T03:27:59.297Z,2.10
2019-02-26T03:30:03.252Z,2.10
2019-02-26T03:32:07.066Z,2.00
2019-02-26T03:34:18.999Z,2.00
2019-02-26T03:36:17.319Z,2.00
2019-02-26T03:38:23.472Z,2.00
2019-02-26T03:40:29.896Z,2.00
2019-02-26T03:42:36.042Z,2.00
2019-02-26T03:44:39.392Z,2.00
2019-02-26T03:46:43.238Z,2.00
2019-02-26T03:48:47.100Z,2.00
2019-02-26T03:50:50.923Z,1.90
2019-02-26T03:52:55.715Z,1.80
2019-02-26T03:55:02.949Z,1.80
2019-02-26T03:57:05.663Z,1.70
2019-02-26T03:59:11.752Z,1.70
2019-02-26T04:01:18.304Z,1.80
2019-02-26T04:03:21.098Z,1.90
2019-02-26T04:05:25.730Z,1.90
2019-02-26T04:07:30.256Z,1.80
2019-02-26T04:09:39.097Z,1.80
2019-02-26T04:11:45.646Z,1.80
2019-02-26T04:13:49.479Z,1.80
2019-02-26T04:15:54.072Z,1.70
2019-02-26T04:17:58.418Z,1.60
2019-02-26T04:20:02.557Z,1.40
2019-02-26T04:22:31.615Z,1.30
2019-02-26T04:24:38.035Z,1.30
2019-02-26T04:27:16.755Z,1.30
2019-02-26T04:29:49.307Z,1.20
2019-02-26T04:32:31.614Z,1.10
2019-02-26T04:34:59.549Z,1.10
2019-02-26T04:37:35.242Z,1.10
2019-02-26T04:40:14.156Z,1.00
2019-02-26T04:43:10.460Z,1.00
2019-02-26T04:45:39.194Z,1.00
2019-02-26T04:47:43.218Z,1.00
2019-02-26T04:49:48.686Z,1.00
2019-02-26T04:51:52.544Z,1.00
2019-02-26T04:53:59.476Z,1.00
2019-02-26T04:56:05.420Z,1.00
2019-02-26T04:58:09.223Z,1.10
2019-02-26T05:00:14.170Z,1.10
2019-02-26T05:02:18.050Z,1.10
2019-02-26T05:04:22.122Z,1.20
2019-02-26T05:06:26.983Z,1.30
2019-02-26T05:08:32.069Z,1.40
2019-02-26T05:10:36.439Z,1.40
2019-02-26T05:13:01.063Z,1.40
2019-02-26T05:15:05.263Z,1.50
2019-02-26T05:17:09.190Z,1.60
2019-02-26T05:19:15.892Z,1.60
2019-02-26T05:21:18.733Z,1.50
2019-02-26T05:23:23.190Z,1.50
2019-02-26T05:25:28.407Z,1.50
2019-02-26T05:27:32.230Z,1.40
2019-02-26T05:29:36.045Z,1.30
2019-02-26T05:31:40.896Z,1.30
2019-02-26T05:33:46.833Z,1.30
2019-02-26T05:35:51.596Z,1.40
2019-02-26T05:37:58.335Z,1.30
2019-02-26T05:40:01.501Z,1.30
2019-02-26T05:42:06.271Z,1.30
2019-02-26T05:44:10.929Z,1.30
2019-02-26T05:46:16.037Z,1.40
2019-02-26T05:48:23.017Z,1.60
2019-02-26T05:50:26.799Z,1.60
2019-02-26T05:52:32.903Z,1.50
2019-02-26T05:54:36.146Z,1.50
2019-02-26T05:56:41.306Z,1.50
2019-02-26T05:58:47.037Z,1.40
2019-02-26T06:00:51.483Z,1.30
2019-02-26T06:02:55.846Z,1.20
2019-02-26T06:04:59.861Z,1.20
2019-02-26T06:07:04.737Z,1.10
2019-02-26T06:09:08.723Z,1.10
2019-02-26T06:11:12.587Z,1.00
2019-02-26T06:13:16.421Z,1.00
2019-02-26T06:15:20.937Z,0.90
2019-02-26T06:17:26.465Z,0.90
2019-02-26T06:19:42.364Z,0.90
2019-02-26T06:21:49.152Z,0.90
2019-02-26T06:23:53.108Z,1.00
2019-02-26T06:26:01.213Z,1.10
2019-02-26T06:28:06.907Z,1.20
2019-02-26T06:30:12.293Z,1.20
2019-02-26T06:32:16.371Z,1.20
2019-02-26T06:34:21.436Z,1.30
2019-02-26T06:36:28.119Z,1.20
2019-02-26T06:38:32.768Z,1.30
2019-02-26T06:40:39.218Z,1.40
2019-02-26T06:42:42.628Z,1.40
2019-02-26T06:44:49.019Z,1.40
2019-02-26T06:46:52.572Z,1.50
2019-02-26T06:48:57.294Z,1.50
2019-02-26T06:51:04.127Z,1.50
2019-02-26T06:53:09.124Z,1.60
2019-02-26T06:55:12.806Z,1.70
2019-02-26T06:57:16.584Z,1.80
2019-02-26T06:59:29.553Z,1.90
2019-02-26T07:01:35.262Z,1.90
2019-02-26T07:03:40.853Z,2.00
2019-02-26T07:05:46.563Z,2.20
2019-02-26T07:07:54.223Z,2.20
2019-02-26T07:09:58.096Z,2.20
2019-02-26T07:12:02.111Z,2.30
2019-02-26T07:14:07.997Z,2.30
2019-02-26T07:16:11.655Z,2.30
2019-02-26T07:18:19.011Z,2.40
2019-02-26T07:20:46.530Z,2.50
2019-02-26T07:22:48.595Z,2.60
2019-02-26T07:24:53.839Z,2.60
2019-02-26T07:26:58.221Z,2.70
2019-02-26T07:29:03.442Z,2.80
2019-02-26T07:31:09.893Z,2.80
2019-02-26T07:33:15.005Z,2.90
2019-02-26T07:35:19.091Z,2.90
2019-02-26T07:37:22.974Z,3.00
2019-02-26T07:39:27.642Z,3.00
2019-02-26T07:41:31.451Z,3.00
2019-02-26T07:43:38.725Z,3.10
2019-02-26T07:45:41.081Z,3.10
2019-02-26T07:47:45.301Z,3.10
2019-02-26T07:49:49.237Z,3.20
2019-02-26T07:51:53.093Z,3.30
2019-02-26T07:53:58.313Z,3.30
2019-02-26T07:56:04.406Z,3.40
2019-02-26T07:58:11.066Z,3.40
2019-02-26T08:00:16.850Z,3.50
2019-02-26T08:02:20.752Z,3.50
2019-02-26T08:04:24.637Z,3.70
2019-02-26T08:06:29.751Z,3.70
2019-02-26T08:08:34.390Z,3.80
2019-02-26T08:10:40.153Z,3.80
2019-02-26T08:12:43.879Z,3.90
2019-02-26T08:14:48.212Z,4.00
2019-02-26T08:16:55.699Z,4.00
2019-02-26T08:19:01.365Z,4.20
2019-02-26T08:21:05.412Z,4.20
2019-02-26T08:23:09.231Z,4.40
2019-02-26T08:25:15.246Z,4.50
2019-02-26T08:27:19.183Z,4.60
2019-02-26T08:29:24.520Z,4.80
2019-02-26T08:31:28.983Z,4.90
2019-02-26T08:33:32.779Z,5.00
2019-02-26T08:35:36.580Z,5.00
2019-02-26T08:37:40.471Z,4.80
2019-02-26T08:39:44.256Z,4.70
2019-02-26T08:42:10.989Z,4.70
2019-02-26T08:44:14.808Z,4.80
2019-02-26T08:46:19.008Z,4.80
2019-02-26T08:48:24.580Z,4.90
2019-02-26T08:50:33.026Z,4.90
2019-02-26T08:52:34.916Z,5.00
2019-02-26T08:54:38.810Z,5.10
2019-02-26T08:56:42.669Z,5.30
2019-02-26T08:58:46.447Z,5.40
2019-02-26T09:00:50.383Z,5.50
2019-02-26T09:02:56.579Z,5.60
2019-02-26T09:05:01.785Z,5.70
2019-02-26T09:07:05.739Z,5.90
2019-02-26T09:09:09.640Z,6.10
2019-02-26T09:11:14.168Z,6.30
2019-02-26T09:13:18.698Z,6.40
2019-02-26T09:15:22.743Z,6.50
2019-02-26T09:17:29.697Z,6.70
2019-02-26T09:19:33.102Z,6.70
2019-02-26T09:21:41.743Z,6.80
2019-02-26T09:23:47.404Z,7.00
2019-02-26T09:25:54.147Z,7.10
2019-02-26T09:27:54.743Z,7.30
2019-02-26T09:30:00.467Z,7.50
2019-02-26T09:32:06.610Z,7.60
2019-02-26T09:34:09.803Z,7.80
2019-02-26T09:36:15.720Z,8.00
2019-02-26T09:38:22.488Z,8.10
2019-02-26T09:40:26.472Z,8.30
2019-02-26T09:42:32.377Z,8.60
2019-02-26T09:44:36.056Z,8.80
2019-02-26T09:46:41.926Z,9.10
2019-02-26T09:48:46.133Z,9.30
2019-02-26T09:50:50.085Z,9.50
2019-02-26T09:52:56.656Z,9.60
2019-02-26T09:54:59.966Z,9.70
2019-02-26T09:57:03.848Z,10.00
2019-02-26T09:59:09.658Z,10.60
2019-02-26T10:01:13.895Z,11.60
2019-02-26T10:03:18.924Z,13.00
2019-02-26T10:05:22.819Z,14.50
2019-02-26T10:07:28.491Z,16.00
2019-02-26T10:09:34.880Z,17.00
2019-02-26T10:11:39.329Z,18.50
2019-02-26T10:13:44.469Z,19.60
2019-02-26T10:15:49.387Z,20.90
2019-02-26T10:17:53.571Z,21.90
2019-02-26T10:19:59.372Z,22.30
2019-02-26T10:22:06.337Z,23.60
2019-02-26T10:24:09.219Z,24.00
2019-02-26T10:26:13.028Z,24.70
2019-02-26T10:28:19.033Z,25.20
2019-02-26T10:30:22.551Z,26.00
2019-02-26T10:32:26.991Z,26.30
2019-02-26T10:34:31.144Z,26.50
2019-02-26T10:36:40.831Z,26.60
2019-02-26T10:38:40.712Z,26.70
2019-02-26T10:40:53.270Z,27.10
2019-02-26T10:42:50.398Z,27.40
2019-02-26T10:44:54.207Z,27.50
2019-02-26T10:47:00.683Z,27.20
2019-02-26T10:49:04.631Z,27.10
2019-02-26T10:51:08.500Z,27.20
2019-02-26T10:53:14.183Z,27.80
2019-02-26T10:55:20.693Z,28.50
2019-02-26T10:57:23.725Z,28.80
2019-02-26T10:59:28.009Z,29.20
2019-02-26T11:01:33.701Z,29.80
2019-02-26T11:03:40.925Z,30.20
2019-02-26T11:05:45.279Z,30.70
2019-02-26T11:07:52.558Z,31.40
2019-02-26T11:09:58.853Z,32.00
2019-02-26T11:12:07.891Z,32.20
2019-02-26T11:14:13.588Z,32.20
2019-02-26T11:16:25.101Z,32.10
2019-02-26T11:18:24.307Z,32.90
2019-02-26T11:20:34.286Z,33.00
2019-02-26T11:22:42.349Z,33.80
2019-02-26T11:24:48.383Z,34.10
2019-02-26T11:26:53.218Z,34.00
2019-02-26T11:28:58.407Z,34.30
2019-02-26T11:31:03.552Z,34.60
2019-02-26T11:33:10.145Z,34.50
2019-02-26T11:35:14.684Z,34.40
2019-02-26T11:37:20.322Z,34.70
2019-02-26T11:39:24.595Z,34.80
2019-02-26T11:41:31.028Z,34.70
2019-02-26T11:43:34.594Z,34.70
2019-02-26T11:45:40.046Z,34.90
2019-02-26T11:47:44.271Z,35.60
2019-02-26T11:49:48.599Z,36.20
2019-02-26T11:51:52.427Z,36.50
2019-02-26T11:53:56.348Z,37.10
2019-02-26T11:56:02.044Z,37.70
2019-02-26T11:58:10.054Z,37.30
2019-02-26T12:00:24.262Z,36.10
2019-02-26T12:02:26.279Z,36.30
2019-02-26T12:04:28.584Z,36.80
2019-02-26T12:06:32.452Z,37.00
2019-02-26T12:08:37.269Z,37.00
2019-02-26T12:10:41.991Z,36.80
2019-02-26T12:12:45.842Z,37.40
2019-02-26T12:14:49.688Z,37.80
2019-02-26T12:16:53.478Z,37.30
2019-02-26T12:18:58.842Z,37.50
2019-02-26T12:21:05.375Z,37.40
2019-02-26T12:23:11.565Z,37.30
2019-02-26T12:25:14.599Z,36.90
2019-02-26T12:27:20.807Z,37.40
2019-02-26T12:29:25.832Z,37.60
2019-02-26T12:31:31.837Z,38.20
2019-02-26T12:33:35.819Z,38.90
2019-02-26T12:35:40.621Z,38.40
2019-02-26T12:37:47.317Z,38.60
2019-02-26T12:39:53.038Z,38.70
2019-02-26T12:41:56.471Z,39.00
2019-02-26T12:44:03.645Z,39.70
2019-02-26T12:46:08.486Z,40.00
2019-02-26T12:50:18.971Z,40.30
2019-02-26T12:52:26.497Z,41.00
2019-02-26T12:54:30.964Z,41.60
2019-02-26T12:56:37.340Z,42.10
2019-02-26T12:58:41.113Z,42.20
2019-02-26T13:01:04.884Z,42.70
2019-02-26T13:03:12.345Z,42.60
2019-02-26T13:05:18.948Z,42.80
2019-02-26T13:07:20.343Z,42.70
2019-02-26T13:09:26.744Z,42.50
2019-02-26T13:11:30.626Z,41.20
2019-02-26T13:13:34.439Z,40.70
2019-02-26T13:15:38.557Z,40.60
2019-02-26T13:17:44.486Z,40.90
2019-02-26T13:19:49.234Z,40.70
2019-02-26T13:21:56.253Z,41.00
2019-02-26T13:24:11.374Z,41.70
2019-02-26T13:26:08.456Z,42.00
2019-02-26T13:28:30.559Z,41.50
2019-02-26T13:30:34.443Z,40.50
2019-02-26T13:32:55.112Z,40.40
2019-02-26T13:34:43.926Z,40.30
2019-02-26T13:36:52.756Z,40.20
2019-02-26T13:38:53.214Z,40.70
2019-02-26T13:41:19.848Z,41.90
2019-02-26T13:45:09.532Z,42.10
2019-02-26T13:47:13.474Z,42.60
2019-02-26T13:49:17.359Z,42.60
2019-02-26T13:51:22.034Z,42.40
2019-02-26T13:53:25.965Z,41.70
2019-02-26T13:55:30.173Z,41.20
2019-02-26T13:57:34.171Z,41.50
2019-02-26T13:59:38.048Z,40.80
2019-02-26T14:01:42.195Z,40.60
2019-02-26T14:03:46.139Z,41.10
2019-02-26T14:05:50.079Z,41.50
2019-02-26T14:07:53.939Z,41.20
2019-02-26T14:09:58.243Z,41.50
2019-02-26T14:12:02.461Z,41.80
2019-02-26T14:14:06.520Z,41.80
2019-02-26T14:16:10.429Z,42.30
2019-02-26T14:18:14.271Z,42.50
2019-02-26T14:20:18.452Z,43.00
2019-02-26T14:22:22.266Z,42.80
2019-02-26T14:24:26.149Z,42.30
2019-02-26T14:26:30.725Z,42.10
2019-02-26T14:28:35.000Z,42.70
2019-02-26T14:30:38.945Z,42.90
2019-02-26T14:32:42.911Z,42.80
2019-02-26T14:34:46.723Z,42.50
2019-02-26T14:36:50.519Z,42.50
2019-02-26T14:38:54.484Z,42.60
2019-02-26T14:41:00.079Z,42.50
2019-02-26T14:43:04.018Z,43.10
2019-02-26T14:45:10.260Z,43.80
2019-02-26T14:47:14.074Z,44.00
2019-02-26T14:49:17.879Z,43.80
2019-02-26T14:51:21.715Z,44.10
2019-02-26T14:53:27.648Z,44.30
2019-02-26T14:55:32.089Z,44.10
2019-02-26T14:57:35.888Z,43.80
2019-02-26T14:59:39.676Z,43.90
2019-02-26T15:01:43.479Z,43.90
2019-02-26T15:03:47.386Z,44.60
2019-02-26T15:05:51.659Z,45.00
2019-02-26T15:07:55.559Z,45.40
2019-02-26T15:09:59.771Z,44.70
2019-02-26T15:12:03.780Z,44.00
2019-02-26T15:14:07.628Z,43.30
2019-02-26T15:16:11.527Z,43.00
2019-02-26T15:18:15.370Z,43.30
2019-02-26T15:20:19.378Z,43.40
2019-02-26T15:22:23.414Z,42.30
2019-02-26T15:24:27.312Z,41.50
2019-02-26T15:26:32.182Z,41.90
2019-02-26T15:28:35.943Z,42.10
2019-02-26T15:30:39.879Z,42.00
2019-02-26T15:32:44.251Z,41.50
2019-02-26T15:34:48.121Z,40.70
2019-02-26T15:36:51.930Z,41.10
2019-02-26T15:38:55.738Z,41.20
2019-02-26T15:41:00.038Z,40.90
2019-02-26T15:43:04.096Z,41.10
2019-02-26T15:45:13.962Z,41.40
2019-02-26T15:47:17.832Z,41.70
2019-02-26T15:49:21.634Z,41.50
2019-02-26T15:51:25.507Z,41.00
2019-02-26T15:53:29.800Z,40.40
2019-02-26T15:55:34.369Z,39.70
2019-02-26T15:57:39.195Z,38.90
2019-02-26T15:59:42.971Z,37.60
2019-02-26T16:01:46.796Z,36.00
2019-02-26T16:03:50.669Z,34.90
2019-02-26T16:05:54.495Z,34.00
2019-02-26T16:07:58.368Z,32.20
2019-02-26T16:10:02.684Z,30.60
2019-02-26T16:12:06.482Z,29.60
2019-02-26T16:14:10.298Z,28.30
2019-02-26T16:16:14.179Z,27.20
2019-02-26T16:18:17.974Z,26.00
2019-02-26T16:20:21.887Z,25.20
2019-02-26T16:22:25.734Z,24.70
2019-02-26T16:24:29.774Z,24.40
2019-02-26T16:26:33.699Z,24.00
2019-02-26T16:28:37.492Z,23.70
2019-02-26T16:30:41.411Z,23.70
2019-02-26T16:32:45.386Z,23.50
2019-02-26T16:34:52.199Z,23.20
2019-02-26T16:36:54.799Z,22.90
2019-02-26T16:38:59.308Z,22.90
2019-02-26T16:41:04.967Z,22.70
2019-02-26T16:43:09.057Z,22.30
2019-02-26T16:45:15.628Z,21.90
2019-02-26T16:47:19.489Z,21.80
2019-02-26T16:49:25.901Z,21.50
2019-02-26T16:51:29.335Z,21.30
2019-02-26T16:53:34.217Z,21.10
2019-02-26T16:55:38.371Z,20.80
2019-02-26T16:57:42.843Z,20.60
2019-02-26T16:59:46.643Z,20.20
2019-02-26T17:01:52.621Z,19.60
2019-02-26T17:03:56.681Z,19.00
2019-02-26T17:06:01.231Z,18.40
2019-02-26T17:08:05.127Z,17.80
2019-02-26T17:10:10.756Z,17.30
2019-02-26T17:12:14.546Z,16.90
2019-02-26T17:14:18.699Z,16.50
2019-02-26T17:16:22.676Z,16.30
2019-02-26T17:18:26.702Z,16.00
2019-02-26T17:20:30.944Z,15.80
2019-02-26T17:22:34.919Z,15.50
2019-02-26T17:24:38.821Z,15.30
2019-02-26T17:26:42.615Z,15.10
2019-02-26T17:28:46.555Z,14.90
2019-02-26T17:30:50.367Z,14.70
2019-02-26T17:32:54.608Z,14.40
2019-02-26T17:34:58.603Z,14.10
2019-02-26T17:37:03.256Z,13.90
2019-02-26T17:39:08.659Z,13.70
2019-02-26T17:41:12.782Z,13.40
2019-02-26T17:43:16.743Z,13.20
2019-02-26T17:45:20.703Z,13.10
2019-02-26T17:47:24.576Z,13.00
2019-02-26T17:49:28.455Z,13.00
2019-02-26T17:51:33.103Z,12.90
2019-02-26T17:53:36.911Z,12.90
2019-02-26T17:55:40.712Z,12.70
2019-02-26T17:57:44.499Z,12.60
2019-02-26T17:59:48.525Z,12.40
2019-02-26T18:01:52.515Z,12.20
2019-02-26T18:03:56.363Z,12.10
2019-02-26T18:06:00.617Z,11.90
2019-02-26T18:08:05.299Z,11.80
2019-02-26T18:10:12.889Z,11.70
2019-02-26T18:12:17.360Z,11.60
2019-02-26T18:14:21.222Z,11.40
2019-02-26T18:16:25.011Z,11.40
2019-02-26T18:18:28.891Z,11.30
2019-02-26T18:20:33.304Z,11.30
2019-02-26T18:22:37.115Z,11.20
2019-02-26T18:24:41.123Z,11.20
2019-02-26T18:26:44.936Z,11.10
2019-02-26T18:28:48.730Z,11.10
2019-02-26T18:30:52.626Z,11.20
2019-02-26T18:32:59.021Z,11.20
2019-02-26T18:35:02.444Z,11.20
2019-02-26T18:37:06.387Z,11.10
2019-02-26T18:39:10.519Z,10.90
2019-02-26T18:41:15.368Z,10.80
2019-02-26T18:43:19.223Z,10.60
2019-02-26T18:45:27.568Z,10.50
2019-02-26T18:47:29.774Z,10.40
2019-02-26T18:49:34.560Z,10.30
2019-02-26T18:51:39.415Z,10.20
2019-02-26T18:53:44.602Z,10.20
2019-02-26T18:55:48.905Z,10.20
2019-02-26T18:57:54.387Z,10.10
2019-02-26T18:59:58.456Z,10.00
2019-02-26T19:02:03.459Z,9.90
2019-02-26T19:04:07.871Z,9.80
2019-02-26T19:06:11.676Z,9.70
2019-02-26T19:08:15.535Z,9.60
2019-02-26T19:10:20.858Z,9.60
2019-02-26T19:12:25.169Z,9.50
2019-02-26T19:14:29.375Z,9.40
2019-02-26T19:16:33.990Z,9.40
2019-02-26T19:18:38.507Z,9.60
2019-02-26T19:20:44.307Z,9.50
2019-02-26T19:22:48.322Z,9.40
2019-02-26T19:24:52.278Z,9.40
2019-02-26T19:26:56.110Z,9.40
2019-02-26T19:28:59.907Z,9.30
2019-02-26T19:31:04.315Z,9.30
2019-02-26T19:33:08.313Z,9.20
2019-02-26T19:35:12.682Z,9.10
2019-02-26T19:37:16.717Z,9.00
2019-02-26T19:39:22.160Z,9.00
2019-02-26T19:41:25.953Z,8.90
2019-02-26T19:43:29.871Z,8.90
2019-02-26T19:45:35.133Z,8.80
2019-02-26T19:47:39.059Z,8.70
2019-02-26T19:49:42.852Z,8.80
2019-02-26T19:51:46.733Z,8.90
2019-02-26T19:54:10.003Z,9.00
2019-02-26T19:56:13.948Z,9.00
2019-02-26T19:58:18.002Z,8.90
2019-02-26T20:00:21.962Z,8.80
2019-02-26T20:02:26.354Z,8.70
2019-02-26T20:04:31.558Z,8.70
2019-02-26T20:06:35.571Z,8.60
2019-02-26T20:08:39.402Z,8.60
2019-02-26T20:10:47.668Z,8.50
2019-02-26T20:12:48.873Z,8.40
2019-02-26T20:14:52.774Z,8.40
2019-02-26T20:16:56.578Z,8.40
2019-02-26T20:19:00.403Z,8.30
2019-02-26T20:21:04.858Z,8.20
2019-02-26T20:23:09.075Z,8.20
2019-02-26T20:25:14.230Z,8.10
2019-02-26T20:27:21.635Z,8.10
2019-02-26T20:29:23.562Z,8.10
2019-02-26T20:31:28.867Z,8.10
2019-02-26T20:33:33.896Z,8.10
2019-02-26T20:35:37.720Z,8.10
2019-02-26T20:37:41.744Z,8.00
2019-02-26T20:39:45.532Z,8.00
2019-02-26T20:41:49.607Z,7.90
2019-02-26T20:43:53.489Z,7.90
2019-02-26T20:45:57.351Z,7.80
2019-02-26T20:48:03.869Z,7.80
2019-02-26T20:50:07.306Z,7.80
2019-02-26T20:52:11.603Z,7.80
2019-02-26T20:54:15.580Z,7.90
2019-02-26T20:56:19.518Z,7.90
2019-02-26T20:58:23.395Z,7.90
2019-02-26T21:00:27.616Z,7.80
2019-02-26T21:02:33.758Z,7.80
2019-02-26T21:04:37.680Z,7.70
2019-02-26T21:06:41.691Z,7.60
2019-02-26T21:08:45.515Z,7.50
2019-02-26T21:10:49.379Z,7.50
2019-02-26T21:12:53.189Z,7.60
2019-02-26T21:14:57.000Z,7.60
2019-02-26T21:17:00.767Z,7.60
2019-02-26T21:19:05.639Z,7.60
2019-02-26T21:21:11.694Z,7.40
2019-02-26T21:23:19.068Z,7.30
2019-02-26T21:25:22.955Z,7.20
2019-02-26T21:27:29.483Z,7.20
2019-02-26T21:29:33.829Z,7.20
2019-02-26T21:31:38.399Z,7.20
2019-02-26T21:33:42.283Z,7.10
2019-02-26T21:35:46.182Z,7.10
2019-02-26T21:37:50.152Z,7.10
2019-02-26T21:39:53.947Z,7.10
2019-02-26T21:41:57.726Z,7.10
2019-02-26T21:44:01.786Z,7.10
2019-02-26T21:46:06.178Z,7.10
2019-02-26T21:48:09.967Z,7.10
2019-02-26T21:50:13.899Z,7.10
2019-02-26T21:52:17.872Z,7.00
2019-02-26T21:54:24.598Z,6.90
2019-02-26T21:56:28.295Z,6.90
2019-02-26T21:58:33.094Z,6.80
2019-02-26T22:00:39.022Z,6.70
2019-02-26T22:02:44.409Z,6.70
2019-02-26T22:04:48.884Z,6.60
2019-02-26T22:06:52.747Z,6.50
2019-02-26T22:08:57.119Z,6.50
2019-02-26T22:11:01.576Z,6.40
2019-02-26T22:13:05.831Z,6.30
2019-02-26T22:15:10.988Z,6.20
2019-02-26T22:17:15.013Z,6.20
2019-02-26T22:19:18.799Z,6.20
2019-02-26T22:21:22.615Z,6.10
2019-02-26T22:23:26.411Z,6.10
2019-02-26T22:25:30.275Z,6.10
2019-02-26T22:27:36.171Z,6.00
2019-02-26T22:29:40.523Z,6.00
2019-02-26T22:31:44.319Z,5.90
2019-02-26T22:33:48.084Z,5.90
2019-02-26T22:35:51.990Z,5.90
2019-02-26T22:37:55.878Z,5.90
2019-02-26T22:39:59.709Z,5.90
2019-02-26T22:42:07.857Z,5.90
2019-02-26T22:44:09.743Z,5.90
2019-02-26T22:46:13.871Z,5.90
2019-02-26T22:48:17.743Z,5.90
2019-02-26T22:50:21.624Z,5.90
2019-02-26T22:52:25.475Z,5.80
2019-02-26T22:54:29.235Z,5.80
2019-02-26T22:56:33.537Z,5.80
2019-02-26T22:58:37.607Z,5.80
2019-02-26T23:01:11.623Z,5.60
2019-02-26T23:03:15.560Z,5.60
2019-02-26T23:05:20.029Z,5.50
2019-02-26T23:07:24.140Z,5.50
2019-02-26T23:09:29.395Z,5.50
2019-02-26T23:11:34.079Z,5.40
2019-02-26T23:13:38.203Z,5.30
2019-02-26T23:15:44.909Z,5.30
2019-02-26T23:17:48.184Z,5.30
2019-02-26T23:19:52.108Z,5.30
2019-02-26T23:21:56.094Z,5.40
2019-02-26T23:24:00.086Z,5.40
2019-02-26T23:26:08.696Z,5.40
2019-02-26T23:28:10.326Z,5.50
2019-02-26T23:30:14.779Z,5.40
2019-02-26T23:32:19.223Z,5.30
2019-02-26T23:34:23.136Z,5.30
2019-02-26T23:36:28.577Z,5.20
2019-02-26T23:38:32.745Z,5.20
2019-02-26T23:40:37.199Z,5.20
2019-02-26T23:42:41.171Z,5.20
2019-02-26T23:44:45.022Z,5.20
2019-02-26T23:46:48.847Z,5.00
2019-02-26T23:48:52.647Z,5.00
2019-02-26T23:50:56.567Z,5.00
2019-02-26T23:53:01.100Z,5.00
2019-02-26T23:55:06.454Z,4.90
2019-02-26T23:57:16.899Z,4.90
2019-02-26T23:59:20.669Z,4.80
